Time;durP1;ratioP1;P1;durP2;ratioP2;P2;SDS_P1;SDS_P2;PMS_P1;PMS_P2;Temp;Humidity;BMP_temperature;BMP_pressure;BME280_temperature;BME280_humidity;BME280_pressure;Samples;Min_cycle;Max_cycle;Signal;HPM_P1;HPM_P2
2023/08/25 01:55:22;;;;;;;11.50;7.40;;;;;;;20.75;58.20;99285.72;79900;1303;3012913;-63
2023/08/25 01:57:49;;;;;;;18.20;8.60;;;;;;;20.74;58.05;99288.13;78978;1303;3013912;-64
2023/08/25 02:00:19;;;;;;;17.60;8.30;;;;;;;20.75;57.74;99289.23;78962;1301;3012994;-61
2023/08/25 02:02:47;;;;;;;17.00;7.70;;;;;;;20.74;57.74;99287.09;77884;1300;3051430;-62
2023/08/25 02:05:14;;;;;;;16.10;8.20;;;;;;;20.74;57.51;99289.92;79023;1303;3013338;-62
2023/08/25 02:07:40;;;;;;;20.60;7.80;;;;;;;20.74;57.20;99292.02;77018;1301;3011848;-63
2023/08/25 02:10:09;;;;;;;15.30;8.20;;;;;;;20.75;57.07;99293.59;77951;1303;3026432;-63
2023/08/25 02:12:35;;;;;;;16.10;8.00;;;;;;;20.75;57.06;99283.95;79139;1300;3013071;-62
2023/08/25 02:15:03;;;;;;;14.70;7.80;;;;;;;20.75;56.90;99280.95;79067;1301;3011974;-63
2023/08/25 02:17:31;;;;;;;21.70;9.00;;;;;;;20.74;56.95;99281.55;78005;1303;3052732;-63
2023/08/25 02:19:57;;;;;;;17.40;8.10;;;;;;;20.72;56.94;99279.24;78994;1304;3020797;-61
2023/08/25 02:22:24;;;;;;;16.70;8.30;;;;;;;20.72;56.92;99278.65;79027;1304;3013131;-62
2023/08/25 02:24:52;;;;;;;16.60;8.80;;;;;;;20.70;56.84;99278.41;77771;1303;3028913;-62
2023/08/25 02:27:19;;;;;;;19.70;8.70;;;;;;;20.69;56.91;99280.67;79075;1300;3013179;-64
2023/08/25 02:29:46;;;;;;;19.40;9.10;;;;;;;20.67;57.03;99289.77;79018;1300;3011586;-63
2023/08/25 02:32:14;;;;;;;25.50;9.40;;;;;;;20.65;57.03;99296.70;77889;1303;3051912;-63
2023/08/25 02:34:41;;;;;;;19.30;9.10;;;;;;;20.59;57.70;99293.09;79026;1300;3013467;-63
2023/08/25 02:37:08;;;;;;;18.50;8.70;;;;;;;20.52;57.94;99292.23;79031;1302;3011644;-63
2023/08/25 02:39:36;;;;;;;17.30;8.70;;;;;;;20.48;58.32;99288.62;77835;1303;3025974;-62
2023/08/25 02:42:03;;;;;;;18.20;8.60;;;;;;;20.43;58.66;99289.94;79013;1304;3013384;-61
2023/08/25 02:44:30;;;;;;;23.20;9.60;;;;;;;20.37;59.35;99291.15;79109;1300;3011565;-63
2023/08/25 02:46:59;;;;;;;21.80;10.00;;;;;;;20.32;59.76;99285.19;77964;1303;3052613;-64
2023/08/25 02:49:25;;;;;;;25.10;11.00;;;;;;;20.26;60.86;99288.16;79111;1301;3014134;-63
2023/08/25 02:51:52;;;;;;;21.30;10.90;;;;;;;20.22;61.10;99283.39;79014;1299;3011998;-63
2023/08/25 02:54:20;;;;;;;25.80;11.80;;;;;;;20.20;61.83;99277.73;77770;1303;3050083;-62
2023/08/25 02:56:49;;;;;;;28.00;12.10;;;;;;;20.12;62.70;99272.90;79094;1303;3013581;-62
2023/08/25 02:59:19;;;;;;;22.30;12.50;;;;;;;20.06;63.29;99276.23;78631;1300;3011660;-61
2023/08/25 03:01:45;;;;;;;25.40;12.60;;;;;;;20.01;63.09;99273.52;79039;1303;3013392;-63
2023/08/25 03:04:12;;;;;;;27.30;12.60;;;;;;;19.95;63.34;99271.75;79221;1303;3013462;-64
2023/08/25 03:06:40;;;;;;;28.80;13.60;;;;;;;19.89;63.43;99270.28;78019;1299;3026556;-62
2023/08/25 03:09:06;;;;;;;44.10;18.20;;;;;;;19.92;62.89;99268.20;79027;1298;3012849;-64
2023/08/25 03:11:33;;;;;;;36.10;17.50;;;;;;;19.92;62.80;99267.30;79067;1302;3011462;-63
2023/08/25 03:14:02;;;;;;;46.60;20.60;;;;;;;19.91;63.38;99262.63;78011;1302;3049649;-62
2023/08/25 03:16:29;;;;;;;39.40;19.60;;;;;;;19.91;63.72;99261.73;79255;1302;3019117;-64
2023/08/25 03:18:55;;;;;;;48.50;20.00;;;;;;;19.90;63.93;99257.79;79116;1303;3011715;-63
2023/08/25 03:21:23;;;;;;;47.70;21.20;;;;;;;19.89;64.00;99262.81;78082;1297;3027620;-62
2023/08/25 03:23:51;;;;;;;40.90;20.00;;;;;;;19.89;64.12;99266.69;79520;1296;3013970;-62
2023/08/25 03:26:19;;;;;;;42.70;19.10;;;;;;;19.90;64.03;99267.30;79302;1294;3011827;-64
2023/08/25 03:28:49;;;;;;;40.60;18.40;;;;;;;19.91;64.20;99263.95;78045;1300;3049991;-70
2023/08/25 03:31:16;;;;;;;39.50;17.70;;;;;;;19.91;64.50;99267.73;79661;1300;3018688;-71
2023/08/25 03:33:43;;;;;;;38.30;17.70;;;;;;;19.91;64.77;99268.27;79411;1297;3011892;-64
2023/08/25 03:36:11;;;;;;;32.50;15.40;;;;;;;19.92;64.62;99272.42;78326;1296;3026568;-63
2023/08/25 03:38:37;;;;;;;27.20;13.70;;;;;;;19.94;63.97;99272.02;79330;1299;3013395;-65
2023/08/25 03:41:04;;;;;;;30.80;13.90;;;;;;;19.98;63.69;99272.02;79441;1298;3011585;-67
2023/08/25 03:43:35;;;;;;;27.30;13.60;;;;;;;20.01;63.57;99270.14;78262;1298;3025974;-64
2023/08/25 03:46:01;;;;;;;41.40;14.00;;;;;;;20.03;63.74;99267.29;79398;1297;3012966;-68
2023/08/25 03:48:30;;;;;;;30.50;12.80;;;;;;;20.04;63.73;99263.70;78934;1300;3011629;-68
2023/08/25 03:50:57;;;;;;;28.50;12.80;;;;;;;20.08;63.83;99262.31;79382;1300;3018937;-66
2023/08/25 03:53:23;;;;;;;29.90;14.00;;;;;;;20.11;63.80;99264.79;79551;1300;3013581;-68
2023/08/25 03:55:52;;;;;;;29.00;12.90;;;;;;;20.16;63.53;99267.17;78066;1300;3028609;-68
2023/08/25 03:58:18;;;;;;;27.70;11.90;;;;;;;20.21;63.07;99265.88;79280;1298;3021086;-67
2023/08/25 04:00:51;;;;;;;29.40;12.70;;;;;;;20.27;62.72;99264.59;79387;1296;3013359;-66
2023/08/25 04:03:19;;;;;;;23.00;9.40;;;;;;;20.33;61.56;99262.92;78203;1294;3053198;-69
2023/08/25 04:05:45;;;;;;;18.60;10.30;;;;;;;20.38;60.90;99265.77;79465;1297;3013086;-69
2023/08/25 04:08:12;;;;;;;21.30;10.20;;;;;;;20.42;60.68;99267.62;79518;1298;3011603;-69
2023/08/25 04:10:41;;;;;;;22.50;9.60;;;;;;;20.46;60.22;99269.38;78238;1300;3028105;-66
2023/08/25 04:13:09;;;;;;;20.60;9.00;;;;;;;20.50;59.98;99269.71;79883;1294;3011864;-67
2023/08/25 04:15:38;;;;;;;21.30;9.40;;;;;;;20.55;60.04;99267.92;78935;1300;3011631;-68
2023/08/25 04:18:07;;;;;;;18.00;9.60;;;;;;;20.60;59.78;99269.34;79373;1300;3011575;-69
2023/08/25 04:20:33;;;;;;;22.60;10.10;;;;;;;20.64;59.19;99266.55;79649;1300;3013569;-70
2023/08/25 04:23:01;;;;;;;22.20;10.70;;;;;;;20.67;59.40;99270.52;78212;1300;3050358;-70
2023/08/25 04:25:29;;;;;;;24.40;10.80;;;;;;;20.69;59.98;99271.59;79486;1296;3013192;-65
2023/08/25 04:28:00;;;;;;;22.20;10.30;;;;;;;20.74;60.26;99272.47;78895;1299;3012926;-65
2023/08/25 04:30:27;;;;;;;24.40;10.70;;;;;;;20.80;59.77;99272.42;79353;1297;3013336;-65
2023/08/25 04:32:58;;;;;;;26.30;10.40;;;;;;;20.84;59.71;99279.64;78892;1300;3011512;-67
2023/08/25 04:35:27;;;;;;;25.20;10.50;;;;;;;20.89;59.03;99281.95;79532;1300;3011680;-67
2023/08/25 04:37:57;;;;;;;21.40;11.00;;;;;;;20.92;59.84;99286.60;78919;1297;3012115;-65
2023/08/25 04:40:23;;;;;;;22.90;11.10;;;;;;;20.94;60.59;99285.47;79703;1297;3013016;-67
2023/08/25 04:42:52;;;;;;;23.60;11.50;;;;;;;20.99;61.39;99287.48;79466;1296;3011844;-65
2023/08/25 04:45:19;;;;;;;39.40;13.90;;;;;;;21.05;62.04;99294.36;78260;1297;3049544;-66
2023/08/25 04:47:46;;;;;;;34.60;15.40;;;;;;;21.05;63.00;99297.77;79487;1297;3013492;-67
2023/08/25 04:50:13;;;;;;;33.70;14.90;;;;;;;21.03;63.30;99302.73;79551;1296;3012770;-68
2023/08/25 04:52:41;;;;;;;33.00;15.80;;;;;;;20.99;63.06;99305.48;78371;1298;3026822;-68
2023/08/25 04:55:09;;;;;;;34.10;16.30;;;;;;;20.98;62.04;99305.79;79472;1297;3013681;-66
2023/08/25 04:57:36;;;;;;;48.70;21.80;;;;;;;20.94;61.52;99308.39;79417;1294;3011961;-64
2023/08/25 05:00:05;;;;;;;41.50;20.80;;;;;;;21.01;61.20;99309.88;78194;1300;3049835;-71
2023/08/25 05:02:32;;;;;;;46.00;20.20;;;;;;;21.07;60.94;99312.28;79550;1295;3013531;-71
2023/08/25 05:05:00;;;;;;;40.10;19.70;;;;;;;21.14;60.16;99317.37;79408;1300;3011537;-63
2023/08/25 05:07:29;;;;;;;35.70;19.10;;;;;;;21.20;58.91;99317.77;78179;1300;3050848;-65
2023/08/25 05:09:56;;;;;;;31.50;15.80;;;;;;;21.28;58.35;99318.05;79465;1300;3014399;-66
2023/08/25 05:12:22;;;;;;;25.30;13.30;;;;;;;21.33;56.13;99325.83;79497;1297;3011735;-65
2023/08/25 05:14:50;;;;;;;39.70;19.00;;;;;;;21.38;55.23;99330.29;78362;1300;3028186;-66
2023/08/25 05:17:17;;;;;;;41.10;20.10;;;;;;;21.44;56.63;99333.95;79439;1297;3013195;-70
2023/08/25 05:19:49;;;;;;;36.30;18.90;;;;;;;21.46;55.26;99335.79;79052;1297;3013030;-67
2023/08/25 05:22:15;;;;;;;38.50;17.00;;;;;;;21.50;56.29;99337.80;79412;1300;3013033;-67
2023/08/25 05:24:42;;;;;;;40.40;17.80;;;;;;;21.60;56.35;99338.66;79461;1299;3011906;-69
2023/08/25 05:27:10;;;;;;;34.10;17.50;;;;;;;21.69;55.14;99333.98;78259;1295;3026299;-66
2023/08/25 05:29:37;;;;;;;34.60;16.20;;;;;;;21.74;55.14;99337.25;79393;1297;3013226;-68
2023/08/25 05:32:14;;;;;;;32.90;15.60;;;;;;;21.82;53.87;99336.46;78176;1300;3052237;-68
2023/08/25 05:35:03;;;;;;;28.20;13.50;;;;;;;21.88;53.53;99338.30;77998;1301;3049765;-67
2023/08/25 05:37:33;;;;;;;25.00;11.80;;;;;;;21.95;53.30;99342.13;79634;1297;3013192;-67
2023/08/25 05:40:01;;;;;;;16.80;8.30;;;;;;;21.98;51.68;99347.14;78360;1300;3027251;-68
2023/08/25 05:42:33;;;;;;;28.60;13.10;;;;;;;22.03;50.82;99347.52;79550;1299;3012883;-66
2023/08/25 05:45:03;;;;;;;22.50;11.70;;;;;;;22.06;50.55;99348.20;78241;1303;3050873;-67
2023/08/25 05:47:30;;;;;;;34.50;12.50;;;;;;;22.08;50.95;99348.92;79543;1300;3012031;-69
2023/08/25 05:49:57;;;;;;;22.70;10.70;;;;;;;22.07;51.45;99351.48;79341;1297;3011591;-68
2023/08/25 05:52:24;;;;;;;20.20;9.90;;;;;;;22.15;51.26;99346.56;78150;1302;3050224;-68
2023/08/25 05:54:51;;;;;;;18.00;7.40;;;;;;;22.23;50.70;99338.73;79391;1300;3018673;-71
2023/08/25 05:57:18;;;;;;;28.10;9.40;;;;;;;22.29;49.57;99341.75;79368;1300;3011675;-65
2023/08/25 05:59:46;;;;;;;27.00;12.40;;;;;;;22.38;50.24;99344.53;78136;1300;3026224;-71
2023/08/25 06:02:14;;;;;;;24.50;10.20;;;;;;;22.44;50.33;99348.16;79382;1297;3012912;-68
2023/08/25 06:04:40;;;;;;;25.50;9.90;;;;;;;22.53;50.04;99348.55;79549;1297;3013166;-65
2023/08/25 06:07:08;;;;;;;19.70;8.60;;;;;;;22.65;49.36;99352.45;78241;1298;3050367;-71
2023/08/25 06:09:35;;;;;;;17.80;8.30;;;;;;;22.74;49.21;99355.13;79483;1299;3013531;-67
2023/08/25 06:12:01;;;;;;;17.10;8.10;;;;;;;22.79;47.76;99353.73;79533;1299;3013404;-67
2023/08/25 06:14:30;;;;;;;17.70;7.30;;;;;;;22.85;47.93;99352.36;78336;1300;3026199;-67
2023/08/25 06:17:00;;;;;;;18.20;8.00;;;;;;;22.89;47.27;99357.75;79434;1297;3012676;-67
2023/08/25 06:19:29;;;;;;;15.90;6.60;;;;;;;22.72;47.48;99357.88;78447;1299;3053373;-66
2023/08/25 06:21:55;;;;;;;13.20;6.00;;;;;;;22.63;46.83;99352.80;79592;1300;3013069;-66
2023/08/25 06:24:22;;;;;;;15.10;6.00;;;;;;;22.64;47.03;99358.01;79459;1299;3013850;-65
2023/08/25 06:26:50;;;;;;;11.00;5.60;;;;;;;22.71;47.29;99360.63;78272;1297;3026214;-63
2023/08/25 06:29:17;;;;;;;15.80;5.40;;;;;;;22.71;46.79;99364.45;79555;1298;3013590;-65
2023/08/25 06:31:44;;;;;;;12.50;5.80;;;;;;;22.71;46.66;99363.38;79441;1297;3013283;-64
2023/08/25 06:34:11;;;;;;;14.90;6.00;;;;;;;22.85;46.07;99364.62;78145;1300;3026451;-65
2023/08/25 06:36:38;;;;;;;15.90;6.50;;;;;;;22.88;46.43;99372.10;79420;1300;3013833;-64
2023/08/25 06:39:05;;;;;;;15.50;6.10;;;;;;;22.95;46.75;99374.34;79366;1303;3011433;-68
2023/08/25 06:41:33;;;;;;;13.00;4.70;;;;;;;22.98;46.51;99377.44;78226;1300;3028287;-66
2023/08/25 06:44:01;;;;;;;14.70;4.90;;;;;;;22.97;46.60;99378.81;79501;1300;3013331;-65
2023/08/25 06:46:28;;;;;;;9.20;3.40;;;;;;;23.01;46.13;99370.86;79415;1298;3011931;-66
2023/08/25 06:48:56;;;;;;;9.30;3.50;;;;;;;23.00;45.10;99369.93;78187;1297;3052413;-69
2023/08/25 06:51:22;;;;;;;9.20;3.40;;;;;;;22.97;44.79;99374.28;79444;1300;3018245;-67
2023/08/25 06:53:49;;;;;;;12.00;2.90;;;;;;;22.99;44.95;99374.81;79288;1300;3011975;-67
2023/08/25 06:56:17;;;;;;;7.10;3.10;;;;;;;22.97;44.42;99372.35;78227;1297;3026721;-63
2023/08/25 06:58:43;;;;;;;7.30;2.50;;;;;;;22.99;44.42;99373.71;79446;1300;3015397;-65
2023/08/25 07:01:10;;;;;;;8.00;2.20;;;;;;;23.07;44.40;99369.91;79362;1300;3013209;-65
2023/08/25 07:03:38;;;;;;;5.90;2.30;;;;;;;23.14;44.08;99368.63;78243;1298;3026826;-64
2023/08/25 07:06:05;;;;;;;10.40;2.30;;;;;;;23.20;43.93;99372.11;79628;1300;3018677;-65
2023/08/25 07:08:32;;;;;;;4.70;2.50;;;;;;;23.18;44.01;99372.33;79622;1295;3012999;-66
2023/08/25 07:11:00;;;;;;;4.30;2.10;;;;;;;23.22;43.61;99368.95;78302;1294;3028968;-65
2023/08/25 07:13:26;;;;;;;4.40;2.50;;;;;;;23.08;43.46;99370.02;79581;1295;3013116;-65
2023/08/25 07:15:53;;;;;;;6.00;2.60;;;;;;;23.19;43.95;99361.70;79505;1300;3011800;-68
2023/08/25 07:18:24;;;;;;;4.30;2.50;;;;;;;23.39;43.88;99357.01;78363;1299;3025838;-65
2023/08/25 07:20:51;;;;;;;7.70;2.80;;;;;;;23.49;43.89;99362.63;79255;1298;3013144;-67
2023/08/25 07:23:20;;;;;;;5.70;2.50;;;;;;;23.63;43.86;99363.39;79182;1299;3011410;-65
2023/08/25 07:25:53;;;;;;;9.90;2.80;;;;;;;23.81;43.66;99361.25;79552;1294;3015946;-64
2023/08/25 07:28:21;;;;;;;5.90;2.50;;;;;;;23.94;43.65;99358.17;78205;1294;3051904;-64
2023/08/25 07:30:50;;;;;;;8.10;2.80;;;;;;;24.09;43.86;99359.53;79384;1297;3013587;-65
2023/08/25 07:33:17;;;;;;;10.40;3.00;;;;;;;24.07;43.47;99359.08;79683;1295;3011434;-64
2023/08/25 07:35:46;;;;;;;8.40;2.90;;;;;;;23.99;43.88;99361.23;78401;1298;3050865;-64
2023/08/25 07:38:13;;;;;;;10.10;3.40;;;;;;;24.00;44.39;99366.77;79317;1299;3011651;-64
2023/08/25 07:40:40;;;;;;;5.30;2.90;;;;;;;24.08;44.24;99363.77;79611;1294;3011842;-64
2023/08/25 07:43:08;;;;;;;9.40;2.90;;;;;;;24.08;43.14;99367.02;78041;1300;3051412;-63
2023/08/25 07:45:36;;;;;;;6.00;3.00;;;;;;;24.11;43.38;99368.98;79578;1295;3013038;-64
2023/08/25 07:48:02;;;;;;;11.80;3.10;;;;;;;24.25;43.72;99361.63;79354;1295;3012171;-63
2023/08/25 07:50:31;;;;;;;6.30;3.00;;;;;;;24.29;43.17;99359.66;78283;1299;3050241;-65
2023/08/25 07:52:58;;;;;;;4.90;3.20;;;;;;;24.48;42.97;99360.53;79374;1298;3016027;-63
2023/08/25 07:55:25;;;;;;;7.60;3.10;;;;;;;24.66;43.07;99357.82;79400;1300;3011907;-62
2023/08/25 07:57:53;;;;;;;7.20;2.90;;;;;;;24.63;43.02;99359.48;78151;1300;3052177;-63
2023/08/25 08:00:19;;;;;;;8.90;3.50;;;;;;;24.54;43.05;99361.02;79409;1298;3020918;-63
2023/08/25 08:02:47;;;;;;;10.00;3.50;;;;;;;24.45;42.93;99367.30;79272;1296;3011837;-62
2023/08/25 08:05:18;;;;;;;10.80;3.10;;;;;;;24.56;42.75;99358.94;78132;1300;3025858;-64
2023/08/25 08:07:46;;;;;;;8.10;3.20;;;;;;;24.63;42.15;99363.14;79357;1299;3011503;-67
2023/08/25 08:10:14;;;;;;;7.40;2.70;;;;;;;24.60;41.70;99363.01;78437;1300;3026900;-63
2023/08/25 08:12:42;;;;;;;9.40;3.10;;;;;;;24.67;41.95;99359.95;79507;1299;3012931;-63
2023/08/25 08:15:10;;;;;;;9.50;2.50;;;;;;;24.87;41.49;99360.60;79409;1295;3013467;-65
2023/08/25 08:17:38;;;;;;;7.00;2.60;;;;;;;24.87;40.72;99365.27;78517;1300;3050198;-63
2023/08/25 08:20:07;;;;;;;12.70;3.00;;;;;;;24.85;40.86;99361.19;79628;1295;3012835;-62
2023/08/25 08:22:36;;;;;;;9.10;3.30;;;;;;;24.85;40.97;99355.63;78830;1296;3012807;-65
2023/08/25 08:25:03;;;;;;;5.10;2.20;;;;;;;25.03;40.78;99361.14;79468;1300;3021143;-64
2023/08/25 08:27:30;;;;;;;4.10;2.10;;;;;;;25.07;40.76;99363.38;79452;1299;3011602;-64
2023/08/25 08:29:58;;;;;;;8.00;2.60;;;;;;;25.01;40.43;99355.34;78229;1298;3051280;-64
2023/08/25 08:32:24;;;;;;;5.80;2.50;;;;;;;25.15;39.69;99347.46;79854;1297;3019731;-64
2023/08/25 08:34:51;;;;;;;6.60;2.80;;;;;;;25.31;39.79;99350.91;79685;1297;3011914;-63
2023/08/25 08:37:19;;;;;;;4.30;1.90;;;;;;;25.47;39.28;99353.39;78133;1299;3028715;-65
2023/08/25 08:39:45;;;;;;;7.10;2.40;;;;;;;25.52;38.73;99356.98;79567;1299;3021212;-64
2023/08/25 08:42:13;;;;;;;8.80;2.30;;;;;;;25.37;38.76;99351.91;79482;1298;3012983;-69
2023/08/25 08:44:47;;;;;;;4.50;2.30;;;;;;;25.27;38.66;99351.59;78383;1298;3051795;-66
2023/08/25 08:47:17;;;;;;;6.40;2.10;;;;;;;25.52;38.57;99345.08;79550;1294;3011520;-64
2023/08/25 08:49:45;;;;;;;11.40;3.70;;;;;;;25.49;38.35;99352.86;78114;1298;3050332;-67
2023/08/25 08:52:13;;;;;;;10.00;3.40;;;;;;;25.48;38.49;99346.62;79477;1300;3013113;-74
2023/08/25 08:54:43;;;;;;;8.40;2.90;;;;;;;25.67;38.38;99346.36;79476;1298;3013151;-63
2023/08/25 08:57:12;;;;;;;5.90;2.20;;;;;;;25.63;37.29;99346.73;78129;1300;3053047;-66
2023/08/25 08:59:39;;;;;;;7.30;2.70;;;;;;;25.55;37.30;99344.56;79534;1299;3011662;-62
2023/08/25 09:02:07;;;;;;;3.40;2.20;;;;;;;25.58;37.52;99349.92;79578;1294;3012017;-64
2023/08/25 09:04:35;;;;;;;3.60;2.00;;;;;;;25.61;37.52;99347.64;78307;1300;3050074;-64
2023/08/25 09:07:02;;;;;;;6.10;2.60;;;;;;;25.74;37.49;99349.19;79220;1300;3020628;-65
2023/08/25 09:09:28;;;;;;;5.20;2.50;;;;;;;25.95;37.24;99350.30;79137;1303;3012868;-64
2023/08/25 09:11:56;;;;;;;9.00;2.30;;;;;;;26.21;37.18;99344.79;78139;1298;3026390;-62
2023/08/25 09:14:27;;;;;;;9.40;2.40;;;;;;;26.26;36.29;99345.48;79363;1298;3013330;-66
2023/08/25 09:16:59;;;;;;;5.40;2.30;;;;;;;26.17;36.46;99348.20;78070;1298;3056582;-62
2023/08/25 09:19:30;;;;;;;3.70;2.20;;;;;;;26.05;36.23;99345.70;79476;1300;3013128;-63
2023/08/25 09:21:59;;;;;;;9.60;2.00;;;;;;;25.94;36.38;99351.48;78093;1296;3053065;-63
2023/08/25 09:24:26;;;;;;;7.90;2.00;;;;;;;25.91;36.37;99352.17;79320;1315;3014918;-62
2023/08/25 09:26:53;;;;;;;4.90;2.30;;;;;;;26.07;35.71;99345.40;79356;1300;3013206;-64
2023/08/25 09:29:23;;;;;;;7.60;2.60;;;;;;;26.25;35.65;99343.73;78090;1300;3068136;-63
2023/08/25 09:31:50;;;;;;;6.70;2.30;;;;;;;26.44;35.54;99336.41;79355;1295;3013125;-63
2023/08/25 09:34:16;;;;;;;3.20;2.00;;;;;;;26.38;34.79;99339.44;79415;1296;3011771;-63
2023/08/25 09:36:55;;;;;;;14.90;2.30;;;;;;;26.25;34.86;99341.21;78146;1300;3052927;-65
2023/08/25 09:39:23;;;;;;;6.50;2.10;;;;;;;26.27;35.01;99337.91;78374;1300;3050118;-65
2023/08/25 09:41:49;;;;;;;4.90;1.90;;;;;;;26.21;34.87;99336.75;79417;1295;3020636;-64
2023/08/25 09:44:16;;;;;;;3.40;2.20;;;;;;;26.40;34.86;99338.56;79355;1300;3011870;-64
2023/08/25 09:46:44;;;;;;;4.90;2.20;;;;;;;26.48;35.17;99334.73;78124;1300;3025878;-62
2023/08/25 09:49:13;;;;;;;5.60;2.50;;;;;;;26.54;34.97;99328.05;79551;1295;3012667;-65
2023/08/25 09:51:43;;;;;;;6.40;2.50;;;;;;;26.69;34.93;99326.84;79491;1294;3011847;-65
2023/08/25 09:54:12;;;;;;;7.80;2.50;;;;;;;26.88;34.02;99325.92;78364;1300;3048343;-63
2023/08/25 09:56:40;;;;;;;6.70;2.40;;;;;;;26.90;33.64;99323.73;79388;1296;3014337;-66
2023/08/25 09:59:07;;;;;;;3.10;1.80;;;;;;;26.74;34.03;99336.48;79591;1300;3011539;-63
2023/08/25 10:01:40;;;;;;;7.90;2.30;;;;;;;26.65;34.00;99329.21;78273;1299;3051705;-65
2023/08/25 10:04:06;;;;;;;10.20;3.20;;;;;;;26.81;33.98;99328.68;79512;1298;3011872;-64
2023/08/25 10:06:36;;;;;;;6.80;2.60;;;;;;;27.03;33.43;99323.05;78239;1300;3026316;-68
2023/08/25 10:09:03;;;;;;;7.40;2.60;;;;;;;27.25;32.98;99320.48;79634;1300;3013392;-68
2023/08/25 10:11:35;;;;;;;6.30;2.30;;;;;;;27.33;32.72;99312.41;79532;1295;3011953;-67
2023/08/25 10:14:06;;;;;;;5.90;1.50;;;;;;;27.34;33.06;99313.87;78235;1298;3051317;-68
2023/08/25 10:16:45;;;;;;;8.30;3.00;;;;;;;27.39;33.03;99322.29;79439;1299;3013026;-63
2023/08/25 10:19:14;;;;;;;4.80;2.40;;;;;;;27.16;32.62;99325.31;78304;1302;3051070;-67
2023/08/25 10:21:43;;;;;;;4.60;1.90;;;;;;;27.11;32.53;99316.06;79522;1295;3013389;-63
2023/08/25 10:24:14;;;;;;;2.70;1.90;;;;;;;27.18;31.65;99318.77;78879;1294;3011574;-63
2023/08/25 10:26:42;;;;;;;4.30;2.10;;;;;;;27.26;31.02;99318.24;79797;1294;3012151;-64
2023/08/25 10:29:11;;;;;;;6.10;1.90;;;;;;;27.43;30.84;99305.79;78366;1299;3025978;-67
2023/08/25 10:31:48;;;;;;;7.50;2.00;;;;;;;27.56;30.94;99302.52;79494;1308;3014186;-63
2023/08/25 10:34:32;;;;;;;8.40;3.00;;;;;;;27.75;31.43;99306.48;78363;1299;3069446;-64
2023/08/25 10:37:08;;;;;;;3.50;2.40;;;;;;;27.78;31.41;99306.73;78269;1301;3051823;-62
2023/08/25 10:39:49;;;;;;;4.20;2.40;;;;;;;27.95;31.40;99304.52;78084;1295;3055936;-63
2023/08/25 10:42:30;;;;;;;3.40;2.00;;;;;;;27.93;30.90;99311.98;78340;1296;3049142;-65
2023/08/25 10:45:07;;;;;;;6.50;2.30;;;;;;;27.61;31.08;99315.01;78045;1296;3053428;-63
2023/08/25 10:47:41;;;;;;;5.10;2.70;;;;;;;27.73;31.15;99300.46;78182;1295;3050662;-64
2023/08/25 10:50:08;;;;;;;5.90;2.30;;;;;;;27.77;31.12;99300.42;79407;1298;3011823;-65
2023/08/25 10:52:42;;;;;;;7.20;3.00;;;;;;;27.74;31.32;99306.41;78163;1296;3052960;-62
2023/08/25 10:55:28;;;;;;;10.60;2.90;;;;;;;27.55;31.08;99306.91;79350;1296;3011963;-65
2023/08/25 10:58:03;;;;;;;4.40;2.10;;;;;;;27.68;31.22;99307.45;78103;1301;3052364;-64
2023/08/25 11:00:34;;;;;;;3.60;2.40;;;;;;;27.98;31.27;99293.55;78870;1298;3011622;-64
2023/08/25 11:03:01;;;;;;;4.40;2.20;;;;;;;28.06;30.70;99299.20;79250;1298;3012847;-65
2023/08/25 11:05:43;;;;;;;4.80;1.80;;;;;;;28.13;30.68;99297.93;78775;1296;3011648;-62
2023/08/25 11:08:25;;;;;;;3.40;1.80;;;;;;;27.85;31.43;99297.67;78235;1299;3052777;-64
2023/08/25 11:11:13;;;;;;;7.60;2.00;;;;;;;27.75;31.51;99301.25;78188;1299;3050819;-62
2023/08/25 11:13:41;;;;;;;3.90;2.20;;;;;;;27.91;31.94;99293.96;78261;1298;3051998;-62
2023/08/25 11:16:12;;;;;;;6.90;2.00;;;;;;;28.07;31.80;99294.09;79517;1299;3013400;-64
2023/08/25 11:18:43;;;;;;;5.80;2.20;;;;;;;27.92;31.42;99294.43;78235;1300;3051324;-64
2023/08/25 11:21:10;;;;;;;7.70;2.40;;;;;;;27.82;31.57;99288.21;79420;1299;3012160;-64
2023/08/25 11:23:40;;;;;;;4.80;1.60;;;;;;;27.86;31.47;99292.90;78935;1294;3011488;-64
2023/08/25 11:26:10;;;;;;;5.90;2.30;;;;;;;28.05;31.45;99291.48;79554;1298;3014866;-64
2023/08/25 11:28:38;;;;;;;4.40;1.80;;;;;;;28.31;31.25;99287.48;78247;1298;3051981;-62
2023/08/25 11:31:05;;;;;;;4.80;2.10;;;;;;;28.19;31.54;99293.02;79429;1307;3013580;-62
2023/08/25 11:33:32;;;;;;;3.00;2.10;;;;;;;28.17;31.78;99291.66;79187;1301;3011649;-64
2023/08/25 11:36:00;;;;;;;5.80;1.80;;;;;;;28.15;31.60;99298.13;78048;1298;3028509;-63
2023/08/25 11:38:29;;;;;;;5.90;2.30;;;;;;;28.25;31.57;99294.23;79270;1296;3015964;-62
2023/08/25 11:40:55;;;;;;;7.40;2.80;;;;;;;28.46;31.37;99294.52;79245;1297;3011531;-62
2023/08/25 11:43:28;;;;;;;5.30;2.00;;;;;;;28.47;31.09;99299.39;78287;1299;3053260;-63
2023/08/25 11:45:54;;;;;;;7.80;2.80;;;;;;;28.58;30.97;99295.70;79455;1298;3013251;-63
2023/08/25 11:48:22;;;;;;;11.50;2.70;;;;;;;28.53;30.98;99297.00;78298;1295;3068821;-63
2023/08/25 11:50:49;;;;;;;4.90;2.00;;;;;;;28.37;31.02;99303.09;79453;1295;3013591;-62
2023/08/25 11:53:16;;;;;;;4.80;2.10;;;;;;;28.53;30.77;99299.99;79242;1299;3011890;-66
2023/08/25 11:56:03;;;;;;;4.70;2.10;;;;;;;28.76;30.76;99295.88;78194;1295;3026467;-63
2023/08/25 11:58:36;;;;;;;4.30;2.00;;;;;;;28.79;30.80;99298.31;78235;1300;3050681;-62
2023/08/25 12:01:09;;;;;;;7.20;2.10;;;;;;;29.15;30.56;99298.39;79424;1294;3013174;-62
2023/08/25 12:03:38;;;;;;;4.70;2.00;;;;;;;28.97;30.42;99310.02;78169;1300;3053492;-62
2023/08/25 12:06:06;;;;;;;5.10;2.00;;;;;;;29.07;30.51;99300.14;79496;1300;3013226;-63
2023/08/25 12:08:33;;;;;;;8.60;1.80;;;;;;;29.21;30.25;99309.04;79396;1294;3011866;-64
2023/08/25 12:11:01;;;;;;;4.00;2.10;;;;;;;29.41;30.32;99303.63;78333;1300;3049587;-62
2023/08/25 12:13:31;;;;;;;5.30;2.40;;;;;;;29.40;30.44;99299.64;79414;1294;3013198;-65
2023/08/25 12:15:59;;;;;;;7.30;1.70;;;;;;;29.31;30.60;99300.20;78032;1300;3052632;-63
2023/08/25 12:18:35;;;;;;;4.70;2.70;;;;;;;29.24;30.08;99305.48;79327;1295;3018710;-63
2023/08/25 12:21:05;;;;;;;4.90;2.10;;;;;;;29.01;30.55;99306.55;78025;1298;3051478;-63
2023/08/25 12:23:37;;;;;;;7.50;2.40;;;;;;;29.15;30.33;99296.89;79338;1295;3013837;-61
2023/08/25 12:26:08;;;;;;;3.50;2.00;;;;;;;29.45;30.36;99292.98;77998;1295;3049501;-63
2023/08/25 12:28:35;;;;;;;6.50;1.90;;;;;;;29.67;30.08;99294.41;79252;1298;3012954;-65
2023/08/25 12:31:04;;;;;;;4.50;2.00;;;;;;;29.79;30.37;99294.64;78964;1300;3011656;-66
2023/08/25 12:33:31;;;;;;;2.80;1.60;;;;;;;29.81;29.99;99304.02;79408;1300;3013664;-62
2023/08/25 12:36:00;;;;;;;4.10;1.80;;;;;;;29.64;29.89;99299.43;79330;1294;3011656;-63
2023/08/25 12:38:29;;;;;;;4.60;1.60;;;;;;;29.68;29.82;99300.52;78111;1300;3051837;-64
2023/08/25 12:40:57;;;;;;;8.20;1.80;;;;;;;29.48;29.88;99305.95;79324;1298;3013962;-64
2023/08/25 12:43:24;;;;;;;7.40;2.10;;;;;;;29.36;30.07;99298.20;79372;1300;3012978;-63
2023/08/25 12:45:52;;;;;;;6.80;1.60;;;;;;;29.59;29.99;99298.03;78423;1300;3051212;-65
2023/08/25 12:48:18;;;;;;;12.30;4.20;;;;;;;29.78;29.38;99297.10;79447;1301;3012853;-65
2023/08/25 12:50:45;;;;;;;5.10;2.50;;;;;;;29.88;29.09;99294.06;79463;1299;3011820;-64
2023/08/25 12:53:13;;;;;;;6.60;2.00;;;;;;;29.93;28.94;99300.06;78187;1298;3026308;-64
2023/08/25 12:55:39;;;;;;;8.50;2.20;;;;;;;29.93;29.32;99292.77;79458;1294;3013094;-67
2023/08/25 12:58:06;;;;;;;3.60;2.10;;;;;;;29.89;28.87;99295.02;79670;1294;3012936;-63
2023/08/25 13:00:34;;;;;;;4.10;1.90;;;;;;;29.99;28.98;99291.42;78322;1294;3028881;-64
2023/08/25 13:03:00;;;;;;;4.10;1.60;;;;;;;30.10;28.49;99285.84;79466;1299;3018390;-63
2023/08/25 13:05:29;;;;;;;6.80;1.70;;;;;;;30.23;28.34;99288.83;79270;1300;3011881;-65
2023/08/25 13:07:57;;;;;;;6.80;2.10;;;;;;;30.00;28.67;99294.13;78028;1300;3051098;-65
2023/08/25 13:10:24;;;;;;;4.80;1.70;;;;;;;30.13;28.74;99289.86;79312;1296;3013322;-65
2023/08/25 13:12:51;;;;;;;6.20;2.20;;;;;;;30.09;28.80;99288.65;79366;1294;3013000;-65